createdAt,value
2017-08-10T00:02:16.191Z,21.63
2017-08-10T00:04:42.921Z,20.43
2017-08-10T00:07:09.645Z,22.17
2017-08-10T00:09:36.407Z,20.83
2017-08-10T00:12:03.140Z,22.47
2017-08-10T00:14:29.872Z,20.80
2017-08-10T00:16:56.600Z,22.07
2017-08-10T00:19:23.329Z,20.80
2017-08-10T00:21:50.070Z,22.10
2017-08-10T00:24:16.849Z,22.57
2017-08-10T00:26:43.567Z,23.13
2017-08-10T00:29:10.291Z,21.87
2017-08-10T00:31:37.038Z,22.40
2017-08-10T00:34:03.764Z,23.27
2017-08-10T00:36:30.512Z,22.73
2017-08-10T00:38:57.246Z,21.87
2017-08-10T00:41:23.998Z,21.50
2017-08-10T00:43:50.734Z,22.70
2017-08-10T00:46:17.480Z,21.10
2017-08-10T00:48:44.216Z,23.13
2017-08-10T00:51:10.962Z,22.80
2017-08-10T00:53:37.707Z,22.33
2017-08-10T00:56:04.444Z,20.80
2017-08-10T00:58:31.156Z,21.63
2017-08-10T01:00:57.899Z,25.60
2017-08-10T01:03:24.669Z,21.50
2017-08-10T01:05:51.410Z,22.23
2017-08-10T01:08:18.150Z,21.77
2017-08-10T01:10:44.865Z,22.23
2017-08-10T01:13:11.593Z,22.93
2017-08-10T01:15:38.322Z,23.30
2017-08-10T01:18:05.066Z,21.77
2017-08-10T01:20:31.789Z,23.90
2017-08-10T01:22:58.563Z,23.67
2017-08-10T01:25:25.295Z,22.33
2017-08-10T01:27:52.034Z,24.20
2017-08-10T01:30:18.775Z,23.07
2017-08-10T01:32:45.520Z,24.70
2017-08-10T01:35:12.265Z,22.73
2017-08-10T01:37:39.004Z,23.17
2017-08-10T01:40:05.739Z,22.93
2017-08-10T01:42:32.491Z,22.80
2017-08-10T01:44:59.216Z,23.93
2017-08-10T01:47:25.977Z,24.53
2017-08-10T01:49:52.704Z,24.80
2017-08-10T01:52:19.463Z,22.50
2017-08-10T01:54:46.204Z,24.20
2017-08-10T01:57:12.948Z,24.47
2017-08-10T01:59:39.693Z,23.50
2017-08-10T02:02:06.437Z,23.30
2017-08-10T02:04:33.190Z,24.17
2017-08-10T02:06:59.956Z,22.20
2017-08-10T02:09:26.719Z,24.17
2017-08-10T02:11:53.448Z,24.60
2017-08-10T02:14:20.187Z,22.40
2017-08-10T02:16:46.926Z,23.97
2017-08-10T02:19:13.670Z,23.60
2017-08-10T02:21:40.433Z,23.60
2017-08-10T02:24:07.163Z,25.87
2017-08-10T02:26:33.884Z,24.00
2017-08-10T02:29:00.605Z,25.47
2017-08-10T02:31:27.346Z,21.93
2017-08-10T02:33:54.098Z,22.30
2017-08-10T02:36:20.846Z,23.20
2017-08-10T02:38:47.579Z,24.63
2017-08-10T02:41:14.322Z,22.33
2017-08-10T02:43:41.060Z,24.33
2017-08-10T02:46:07.792Z,24.60
2017-08-10T02:48:34.509Z,23.50
2017-08-10T02:51:01.242Z,22.23
2017-08-10T02:53:27.967Z,21.60
2017-08-10T02:55:54.698Z,22.60
2017-08-10T02:58:21.463Z,22.13
2017-08-10T03:00:48.190Z,23.70
2017-08-10T03:03:14.943Z,22.50
2017-08-10T03:05:41.684Z,21.67
2017-08-10T03:08:08.425Z,21.07
2017-08-10T03:10:35.145Z,22.40
2017-08-10T03:13:01.919Z,23.40
2017-08-10T03:15:28.651Z,21.93
2017-08-10T03:17:55.385Z,22.00
2017-08-10T03:20:22.109Z,22.40
2017-08-10T03:22:54.824Z,22.37
2017-08-10T03:25:21.575Z,24.43
2017-08-10T03:27:48.356Z,22.50
2017-08-10T03:30:15.093Z,23.03
2017-08-10T03:32:41.816Z,22.63
2017-08-10T03:35:08.546Z,21.63
2017-08-10T03:37:35.277Z,22.47
2017-08-10T03:40:02.014Z,22.07
2017-08-10T03:42:28.755Z,23.03
2017-08-10T03:44:55.507Z,21.80
2017-08-10T03:47:22.233Z,22.50
2017-08-10T03:49:48.991Z,19.53
2017-08-10T03:52:15.727Z,18.50
2017-08-10T03:54:42.476Z,19.97
2017-08-10T03:57:09.219Z,20.50
2017-08-10T03:59:35.945Z,19.43
2017-08-10T04:02:02.679Z,21.43
2017-08-10T04:04:29.408Z,19.27
2017-08-10T04:06:56.149Z,21.50
2017-08-10T04:09:22.889Z,20.30
2017-08-10T04:11:49.633Z,20.50
2017-08-10T04:14:16.366Z,20.10
2017-08-10T04:16:43.101Z,20.07
2017-08-10T04:19:09.863Z,22.47
2017-08-10T04:21:36.589Z,21.80
2017-08-10T04:24:03.321Z,21.90
2017-08-10T04:26:30.072Z,19.70
2017-08-10T04:28:56.804Z,18.83
2017-08-10T04:31:23.548Z,18.23
2017-08-10T04:33:50.284Z,18.30
2017-08-10T04:36:17.006Z,21.77
2017-08-10T04:38:43.740Z,18.37
2017-08-10T04:41:10.480Z,19.43
2017-08-10T04:43:37.232Z,21.67
2017-08-10T04:46:03.958Z,21.90
2017-08-10T04:48:30.708Z,20.90
2017-08-10T04:50:57.439Z,22.67
2017-08-10T04:53:24.200Z,20.47
2017-08-10T04:55:50.933Z,20.80
2017-08-10T04:58:17.681Z,20.17
2017-08-10T05:00:44.422Z,20.67
2017-08-10T05:03:11.180Z,21.07
2017-08-10T05:05:37.929Z,21.20
2017-08-10T05:08:05.491Z,20.07
2017-08-10T05:10:32.223Z,20.37
2017-08-10T05:12:58.951Z,21.97
2017-08-10T05:15:25.706Z,20.83
2017-08-10T05:17:52.465Z,20.47
2017-08-10T05:20:19.203Z,18.93
2017-08-10T05:22:45.927Z,18.20
2017-08-10T05:25:12.647Z,19.27
2017-08-10T05:27:39.404Z,18.30
2017-08-10T05:30:06.140Z,19.07
2017-08-10T05:32:32.886Z,19.87
2017-08-10T05:34:59.632Z,20.20
2017-08-10T05:37:26.354Z,22.57
2017-08-10T05:39:53.373Z,19.27
2017-08-10T05:42:20.094Z,18.70
2017-08-10T05:44:46.857Z,20.30
2017-08-10T05:47:13.595Z,20.07
2017-08-10T05:49:40.392Z,20.53
2017-08-10T05:52:07.122Z,21.03
2017-08-10T05:54:33.856Z,18.90
2017-08-10T05:57:00.578Z,18.57
2017-08-10T05:59:27.317Z,18.90
2017-08-10T06:01:54.047Z,17.30
2017-08-10T06:04:20.780Z,19.33
2017-08-10T06:06:47.525Z,19.30
2017-08-10T06:09:14.318Z,18.70
2017-08-10T06:11:41.032Z,19.47
2017-08-10T06:14:07.766Z,19.30
2017-08-10T06:16:34.503Z,17.80
2017-08-10T06:19:01.243Z,17.63
2017-08-10T06:21:27.974Z,18.67
2017-08-10T06:23:54.722Z,15.87
2017-08-10T06:26:21.454Z,15.93
2017-08-10T06:28:48.192Z,16.37
2017-08-10T06:31:14.946Z,15.73
2017-08-10T06:33:41.671Z,15.53
2017-08-10T06:36:08.434Z,14.03
2017-08-10T06:38:35.180Z,15.33
2017-08-10T06:41:01.919Z,13.20
2017-08-10T06:43:28.657Z,13.33
2017-08-10T06:45:55.392Z,12.47
2017-08-10T06:48:22.133Z,12.63
2017-08-10T06:50:48.882Z,12.33
2017-08-10T06:53:15.644Z,12.67
2017-08-10T06:55:42.366Z,12.93
2017-08-10T06:58:09.114Z,12.07
2017-08-10T07:00:35.849Z,11.70
2017-08-10T07:03:02.575Z,12.10
2017-08-10T07:05:29.325Z,12.43
2017-08-10T07:07:56.068Z,12.87
2017-08-10T07:10:22.865Z,11.70
2017-08-10T07:12:49.621Z,11.73
2017-08-10T07:15:16.349Z,11.33
2017-08-10T07:17:43.106Z,11.40
2017-08-10T07:20:09.831Z,11.50
2017-08-10T07:22:36.586Z,11.60
2017-08-10T07:25:03.319Z,11.83
2017-08-10T07:27:30.075Z,11.67
2017-08-10T07:29:56.794Z,11.53
2017-08-10T07:32:23.515Z,12.37
2017-08-10T07:34:50.239Z,12.07
2017-08-10T07:37:16.954Z,12.37
2017-08-10T07:39:43.697Z,13.03
2017-08-10T07:42:10.441Z,12.63
2017-08-10T07:44:37.189Z,12.23
2017-08-10T07:47:03.906Z,13.20
2017-08-10T07:49:30.621Z,15.20
2017-08-10T07:51:57.342Z,14.17
2017-08-10T07:54:24.073Z,13.60
2017-08-10T07:56:50.795Z,13.87
2017-08-10T07:59:17.525Z,15.10
2017-08-10T08:01:44.266Z,15.20
2017-08-10T08:04:10.981Z,14.47
2017-08-10T08:06:37.704Z,13.10
2017-08-10T08:09:04.442Z,14.63
2017-08-10T08:11:31.215Z,14.57
2017-08-10T08:13:57.930Z,13.70
2017-08-10T08:16:24.694Z,13.80
2017-08-10T08:18:51.410Z,14.90
2017-08-10T08:21:18.133Z,13.73
2017-08-10T08:23:44.865Z,12.73
2017-08-10T08:26:11.607Z,15.67
2017-08-10T08:28:38.323Z,13.53
2017-08-10T08:31:05.055Z,11.93
2017-08-10T08:33:31.774Z,11.27
2017-08-10T08:35:58.523Z,11.83
2017-08-10T08:38:25.245Z,11.33
2017-08-10T08:40:51.957Z,11.63
2017-08-10T08:43:18.681Z,12.63
2017-08-10T08:45:45.402Z,11.10
2017-08-10T08:48:12.134Z,11.50
2017-08-10T08:50:38.872Z,12.30
2017-08-10T08:53:05.598Z,11.73
2017-08-10T08:55:32.352Z,11.37
2017-08-10T08:57:59.075Z,11.03
2017-08-10T09:00:25.785Z,10.60
2017-08-10T09:02:52.529Z,9.30
2017-08-10T09:05:19.242Z,9.87
2017-08-10T09:07:45.966Z,9.77
2017-08-10T09:10:12.716Z,8.80
2017-08-10T09:12:39.434Z,9.60
2017-08-10T09:15:06.141Z,9.43
2017-08-10T09:17:32.886Z,8.63
2017-08-10T09:19:59.593Z,7.83
2017-08-10T09:22:26.297Z,7.77
2017-08-10T09:24:53.036Z,7.90
2017-08-10T09:27:19.748Z,8.13
2017-08-10T09:29:46.463Z,8.23
2017-08-10T09:32:13.197Z,9.47
2017-08-10T09:34:39.948Z,10.17
2017-08-10T09:37:06.675Z,9.03
2017-08-10T09:39:33.390Z,10.00
2017-08-10T09:42:00.122Z,10.10
2017-08-10T09:44:26.835Z,9.00
2017-08-10T09:46:53.557Z,9.30
2017-08-10T09:49:20.271Z,8.90
2017-08-10T09:51:47.033Z,7.20
2017-08-10T09:54:13.761Z,7.53
2017-08-10T09:56:40.512Z,7.17
2017-08-10T09:59:07.274Z,7.13
2017-08-10T10:01:33.992Z,7.57
2017-08-10T10:04:00.712Z,7.40
2017-08-10T10:06:27.443Z,7.50
2017-08-10T10:08:54.236Z,8.10
2017-08-10T10:11:20.949Z,8.33
2017-08-10T10:13:47.676Z,10.10
2017-08-10T10:16:14.415Z,9.77
2017-08-10T10:18:41.138Z,9.07
2017-08-10T10:21:07.933Z,9.37
2017-08-10T10:23:34.663Z,11.30
2017-08-10T10:26:01.405Z,10.80
2017-08-10T10:28:28.128Z,12.43
2017-08-10T10:30:54.868Z,13.27
2017-08-10T10:33:21.588Z,14.00
2017-08-10T10:35:48.345Z,14.30
2017-08-10T10:38:15.070Z,14.73
2017-08-10T10:40:41.822Z,15.40
2017-08-10T10:43:08.576Z,16.60
2017-08-10T10:45:35.378Z,14.93
2017-08-10T10:48:02.108Z,16.60
2017-08-10T10:50:28.845Z,14.07
2017-08-10T10:52:55.700Z,13.47
2017-08-10T10:55:22.494Z,12.90
2017-08-10T10:57:49.221Z,13.20
2017-08-10T11:00:15.952Z,12.43
2017-08-10T11:02:42.676Z,11.30
2017-08-10T11:05:09.440Z,10.77
2017-08-10T11:07:36.206Z,11.27
2017-08-10T11:10:02.956Z,11.13
2017-08-10T11:12:29.676Z,10.73
2017-08-10T11:14:56.440Z,11.27
2017-08-10T11:17:23.198Z,12.40
2017-08-10T11:19:49.938Z,12.10
2017-08-10T11:22:16.680Z,12.50
2017-08-10T11:24:43.397Z,13.93
2017-08-10T11:27:10.202Z,12.30
2017-08-10T11:29:36.950Z,13.27
2017-08-10T11:32:03.715Z,10.87
2017-08-10T11:34:30.525Z,11.00
2017-08-10T11:36:57.330Z,11.43
2017-08-10T11:39:24.063Z,11.63
2017-08-10T11:41:50.827Z,11.30
2017-08-10T11:44:17.597Z,11.70
2017-08-10T11:46:44.331Z,11.97
2017-08-10T11:49:11.135Z,11.00
2017-08-10T11:51:37.935Z,12.60
2017-08-10T11:54:04.685Z,13.00
2017-08-10T11:56:31.455Z,12.50
2017-08-10T11:58:58.206Z,13.13
2017-08-10T12:01:24.973Z,12.40
2017-08-10T12:03:51.696Z,14.20
2017-08-10T12:06:18.470Z,14.27
2017-08-10T12:08:45.219Z,13.33
2017-08-10T12:11:11.960Z,14.30
2017-08-10T12:13:38.694Z,14.50
2017-08-10T12:16:05.435Z,13.80
2017-08-10T12:18:32.176Z,13.93
2017-08-10T12:20:58.964Z,14.83
2017-08-10T12:23:25.717Z,13.47
2017-08-10T12:25:52.458Z,13.97
2017-08-10T12:28:19.204Z,13.93
2017-08-10T12:30:45.927Z,14.40
2017-08-10T12:33:12.687Z,13.97
2017-08-10T12:35:39.423Z,14.30
2017-08-10T12:38:06.177Z,14.50
2017-08-10T12:40:32.922Z,15.37
2017-08-10T12:42:59.693Z,15.53
2017-08-10T12:45:26.422Z,16.70
2017-08-10T12:47:53.226Z,16.13
2017-08-10T12:50:20.050Z,16.50
2017-08-10T12:52:46.861Z,15.43
2017-08-10T12:55:13.586Z,14.57
2017-08-10T12:57:40.346Z,12.90
2017-08-10T13:00:07.154Z,13.17
2017-08-10T13:02:33.925Z,13.07
2017-08-10T13:05:00.656Z,12.63
2017-08-10T13:07:27.392Z,12.40
2017-08-10T13:09:54.118Z,13.20
2017-08-10T13:12:20.879Z,12.33
2017-08-10T13:14:47.616Z,12.83
2017-08-10T13:17:14.361Z,14.60
2017-08-10T13:19:41.106Z,13.70
2017-08-10T13:22:07.842Z,14.23
2017-08-10T13:24:34.575Z,12.50
2017-08-10T13:27:01.306Z,13.47
2017-08-10T13:29:28.060Z,14.17
2017-08-10T13:31:54.808Z,13.13
2017-08-10T13:34:21.542Z,13.27
2017-08-10T13:36:48.310Z,13.60
2017-08-10T13:39:15.034Z,14.20
2017-08-10T13:41:41.786Z,13.60
2017-08-10T13:44:08.507Z,13.67
2017-08-10T13:46:35.263Z,13.50
2017-08-10T13:49:01.999Z,13.37
2017-08-10T13:51:28.740Z,13.70
2017-08-10T13:53:55.473Z,12.57
2017-08-10T13:56:22.221Z,12.60
2017-08-10T13:58:48.943Z,12.00
2017-08-10T14:01:15.701Z,11.83
2017-08-10T14:03:42.457Z,11.80
2017-08-10T14:06:09.188Z,11.80
2017-08-10T14:08:35.933Z,11.07
2017-08-10T14:11:02.684Z,11.90
2017-08-10T14:13:29.408Z,12.03
2017-08-10T14:15:56.155Z,13.37
2017-08-10T14:18:22.871Z,11.07
2017-08-10T14:20:49.599Z,12.10
2017-08-10T14:23:16.344Z,11.83
2017-08-10T14:25:43.077Z,11.13
2017-08-10T14:28:09.831Z,10.83
2017-08-10T14:30:36.563Z,12.00
2017-08-10T14:33:03.320Z,12.30
2017-08-10T14:35:30.148Z,12.87
2017-08-10T14:37:56.912Z,11.70
2017-08-10T14:40:23.667Z,13.20
2017-08-10T14:45:23.714Z,13.27
2017-08-10T14:47:50.458Z,12.50
2017-08-10T14:50:17.201Z,12.90
2017-08-10T14:52:43.940Z,13.20
2017-08-10T14:55:10.674Z,11.77
2017-08-10T14:57:37.427Z,13.00
2017-08-10T15:00:04.182Z,11.90
2017-08-10T15:02:31.111Z,11.73
2017-08-10T15:04:57.859Z,11.03
2017-08-10T15:07:24.704Z,12.83
2017-08-10T15:09:51.809Z,11.53
2017-08-10T15:12:18.660Z,11.67
2017-08-10T15:14:45.408Z,11.50
2017-08-10T15:17:12.235Z,11.50
2017-08-10T15:19:38.972Z,11.53
2017-08-10T15:22:05.709Z,11.17
2017-08-10T15:24:32.426Z,12.10
2017-08-10T15:26:59.152Z,11.57
2017-08-10T15:29:25.906Z,10.67
2017-08-10T15:31:52.638Z,11.97
2017-08-10T15:34:19.383Z,12.20
2017-08-10T15:36:46.127Z,12.10
2017-08-10T15:39:12.872Z,11.63
2017-08-10T15:41:39.634Z,12.17
2017-08-10T15:44:06.374Z,11.17
2017-08-10T15:46:33.093Z,11.20
2017-08-10T15:48:59.876Z,11.30
2017-08-10T15:51:26.648Z,11.63
2017-08-10T15:53:53.365Z,11.20
2017-08-10T15:56:20.129Z,12.10
2017-08-10T15:58:46.924Z,12.90
2017-08-10T16:01:13.663Z,12.83
2017-08-10T16:03:40.406Z,11.27
2017-08-10T16:06:07.153Z,11.57
2017-08-10T16:08:33.995Z,11.10
2017-08-10T16:11:00.723Z,12.07
2017-08-10T16:13:27.487Z,11.00
2017-08-10T16:15:54.205Z,10.60
2017-08-10T16:18:20.955Z,10.40
2017-08-10T16:20:47.695Z,10.27
2017-08-10T16:23:14.439Z,10.93
2017-08-10T16:25:41.271Z,10.67
2017-08-10T16:28:08.019Z,10.73
2017-08-10T16:30:34.747Z,10.70
2017-08-10T16:33:01.604Z,12.37
2017-08-10T16:35:28.342Z,11.20
2017-08-10T16:37:55.284Z,9.90
2017-08-10T16:40:22.015Z,12.13
2017-08-10T16:42:48.787Z,10.40
2017-08-10T16:45:15.581Z,11.20
2017-08-10T16:47:42.320Z,11.80
2017-08-10T16:50:09.094Z,11.40
2017-08-10T16:52:35.854Z,12.37
2017-08-10T16:55:02.598Z,11.90
2017-08-10T16:57:29.395Z,11.33
2017-08-10T16:59:56.142Z,11.83
2017-08-10T17:02:22.877Z,12.13
2017-08-10T17:04:49.637Z,12.43
2017-08-10T17:07:16.388Z,10.40
2017-08-10T17:09:43.188Z,12.07
2017-08-10T17:12:10.031Z,13.53
2017-08-10T17:14:36.930Z,13.60
2017-08-10T17:17:03.663Z,12.13
2017-08-10T17:19:30.416Z,12.73
2017-08-10T17:21:57.235Z,12.63
2017-08-10T17:24:23.968Z,13.80
2017-08-10T17:26:50.692Z,14.13
2017-08-10T17:29:17.447Z,13.37
2017-08-10T17:31:44.198Z,14.87
2017-08-10T17:34:10.932Z,14.33
2017-08-10T17:36:37.681Z,13.30
2017-08-10T17:39:04.447Z,12.70
2017-08-10T17:41:31.180Z,12.47
2017-08-10T17:43:57.924Z,12.77
2017-08-10T17:46:24.661Z,13.30
2017-08-10T17:48:51.419Z,12.43
2017-08-10T17:51:18.171Z,12.27
2017-08-10T17:53:44.971Z,9.23
2017-08-10T17:56:11.763Z,8.50
2017-08-10T17:58:38.505Z,10.30
2017-08-10T18:01:05.307Z,10.43
2017-08-10T18:03:32.052Z,10.60
2017-08-10T18:05:58.862Z,11.67
2017-08-10T18:08:25.605Z,11.60
2017-08-10T18:10:52.345Z,11.57
2017-08-10T18:13:19.093Z,10.60
2017-08-10T18:15:45.828Z,11.10
2017-08-10T18:18:12.570Z,11.93
2017-08-10T18:20:39.304Z,11.10
2017-08-10T18:23:06.196Z,11.37
2017-08-10T18:25:32.964Z,10.47
2017-08-10T18:27:59.707Z,13.00
2017-08-10T18:30:26.469Z,12.00
2017-08-10T18:32:53.194Z,11.30
2017-08-10T18:35:19.952Z,12.20
2017-08-10T18:37:46.681Z,11.60
2017-08-10T18:40:13.446Z,11.23
2017-08-10T18:42:40.189Z,11.63
2017-08-10T18:45:06.991Z,11.07
2017-08-10T18:47:33.754Z,11.97
2017-08-10T18:50:00.504Z,12.10
2017-08-10T18:52:27.230Z,11.53
2017-08-10T18:54:54.102Z,11.27
2017-08-10T18:57:20.884Z,10.43
2017-08-10T18:59:47.630Z,12.70
2017-08-10T19:02:14.439Z,13.17
2017-08-10T19:04:41.413Z,11.50
2017-08-10T19:07:08.350Z,11.23
2017-08-10T19:09:35.152Z,12.00
2017-08-10T19:12:02.031Z,11.77
2017-08-10T19:14:28.817Z,10.93
2017-08-10T19:16:55.857Z,12.67
2017-08-10T19:19:22.907Z,11.10
2017-08-10T19:21:50.641Z,11.70
2017-08-10T19:24:17.610Z,10.43
2017-08-10T19:26:44.623Z,9.97
2017-08-10T19:29:11.762Z,9.20
2017-08-10T19:31:38.775Z,10.67
2017-08-10T19:34:06.000Z,9.30
2017-08-10T19:36:33.190Z,9.40
2017-08-10T19:39:01.321Z,8.50
2017-08-10T19:41:28.424Z,9.37
2017-08-10T19:43:55.621Z,9.40
2017-08-10T19:49:40.084Z,7.20
2017-08-10T19:58:05.268Z,7.50
2017-08-10T20:00:32.285Z,8.20
2017-08-10T20:02:59.273Z,7.13
2017-08-10T20:05:26.127Z,7.90
2017-08-10T20:07:53.118Z,7.60
2017-08-10T20:10:20.042Z,8.50
2017-08-10T20:12:46.863Z,8.50
2017-08-10T20:15:13.607Z,7.67
2017-08-10T20:17:40.426Z,8.77
2017-08-10T20:20:07.290Z,7.43
2017-08-10T20:22:34.332Z,7.00
2017-08-10T20:25:01.138Z,6.80
2017-08-10T20:27:28.238Z,8.50
2017-08-10T20:29:55.352Z,7.13
2017-08-10T20:32:22.155Z,8.10
2017-08-10T20:34:48.897Z,7.37
2017-08-10T20:37:15.712Z,6.80
2017-08-10T20:39:42.472Z,6.53
2017-08-10T20:42:09.206Z,7.53
2017-08-10T20:44:35.952Z,6.33
2017-08-10T20:47:02.702Z,7.23
2017-08-10T20:49:29.448Z,6.20
2017-08-10T20:51:56.184Z,6.50
2017-08-10T20:54:22.935Z,6.83
2017-08-10T20:56:49.683Z,7.37
2017-08-10T20:59:16.402Z,6.83
2017-08-10T21:01:43.150Z,7.10
2017-08-10T21:04:09.889Z,7.53
2017-08-10T21:06:36.632Z,7.20
2017-08-10T21:09:03.419Z,6.50
2017-08-10T21:11:30.172Z,6.90
2017-08-10T21:13:56.906Z,7.77
2017-08-10T21:16:23.646Z,8.53
2017-08-10T21:18:50.364Z,8.60
2017-08-10T21:21:17.108Z,8.60
2017-08-10T21:23:43.820Z,8.10
2017-08-10T21:26:10.538Z,7.40
2017-08-10T21:28:37.294Z,9.00
2017-08-10T21:31:04.028Z,8.87
2017-08-10T21:33:30.752Z,7.53
2017-08-10T21:35:57.474Z,8.53
2017-08-10T21:38:24.196Z,8.93
2017-08-10T21:40:50.937Z,8.73
2017-08-10T21:43:17.667Z,8.27
2017-08-10T21:45:44.393Z,7.07
2017-08-10T21:48:11.117Z,8.87
2017-08-10T21:50:37.840Z,7.90
2017-08-10T21:53:04.599Z,8.37
2017-08-10T21:55:31.328Z,8.90
2017-08-10T21:57:58.055Z,7.53
2017-08-10T22:00:24.816Z,7.80
2017-08-10T22:02:51.555Z,8.87
2017-08-10T22:05:18.304Z,8.33
2017-08-10T22:07:45.056Z,6.90
2017-08-10T22:10:11.784Z,9.10
2017-08-10T22:12:38.521Z,7.27
2017-08-10T22:15:05.269Z,6.63
2017-08-10T22:17:32.003Z,7.03
2017-08-10T22:19:58.739Z,7.37
2017-08-10T22:22:25.463Z,6.10
2017-08-10T22:24:52.185Z,6.40
2017-08-10T22:27:18.902Z,7.13
2017-08-10T22:29:45.632Z,7.03
2017-08-10T22:32:12.376Z,6.63
2017-08-10T22:34:39.098Z,6.30
2017-08-10T22:37:05.854Z,6.33
2017-08-10T22:39:32.571Z,6.10
2017-08-10T22:41:59.284Z,6.00
2017-08-10T22:44:26.025Z,5.80
2017-08-10T22:46:52.761Z,7.20
2017-08-10T22:49:19.466Z,7.10
2017-08-10T22:51:46.202Z,5.83
2017-08-10T22:54:12.928Z,5.90
2017-08-10T22:56:39.638Z,6.00
2017-08-10T22:59:06.352Z,5.40
2017-08-10T23:01:33.147Z,6.40
2017-08-10T23:03:59.872Z,5.60
2017-08-10T23:06:26.612Z,5.73
2017-08-10T23:08:53.333Z,6.10
2017-08-10T23:11:20.072Z,6.10
2017-08-10T23:13:46.807Z,5.50
2017-08-10T23:16:13.542Z,5.23
2017-08-10T23:18:40.259Z,5.77
2017-08-10T23:21:06.974Z,5.20
2017-08-10T23:23:33.685Z,5.60
2017-08-10T23:26:00.507Z,5.20
2017-08-10T23:28:27.257Z,5.37
2017-08-10T23:30:53.993Z,5.33
2017-08-10T23:33:20.711Z,5.33
2017-08-10T23:35:47.440Z,5.10
2017-08-10T23:38:14.167Z,5.17
2017-08-10T23:40:40.878Z,5.57
2017-08-10T23:43:07.625Z,5.30
2017-08-10T23:45:34.356Z,5.20
2017-08-10T23:48:01.106Z,5.30
2017-08-10T23:50:27.838Z,4.93
2017-08-10T23:52:54.546Z,5.23
2017-08-10T23:55:21.268Z,4.73
2017-08-10T23:57:47.984Z,5.00
